Klagenfurt, Austria
Current Conditions -  °F | °C
As of 7:50 AM on Thursday 23 Oct 2014 (Local Time) from LOWK Reporting Station
Broken Clouds Broken Clouds  
Wind Chill: 39°   Ceiling: 5000
Heat Index: 39°   Visibility: 6mi
Dew Point: 37°   Wind: 3mph
Humidity: 93%   Direction: 300°WNW
Pressure: 29.77"   Gusts: NA
Location:  46.62°N, 14.31°E
Report Text: LOWK 230550Z 30003KT 270V340 9999 SCT036 BKN050 BKN100 04/03 Q1008 NOSIG
Loading
Personal Weather Stations






























Interactive Weather Map
Tropical Storm Tracking
New forecast layout! Learn more

10-Day Weather Forecast

Advertisements
Track Severe Weather on mobile